Time;durP1;ratioP1;P1;durP2;ratioP2;P2;SDS_P1;SDS_P2;PMS_P1;PMS_P2;Temp;Humidity;BMP_temperature;BMP_pressure;BME280_temperature;BME280_humidity;BME280_pressure;Samples;Min_cycle;Max_cycle;Signal;HPM_P1;HPM_P2
2021/05/30 00:01:06;;;;;;;8.48;4.53;;;;;;;14.11;93.43;98595.62;1889879;76;22112;-64
2021/05/30 00:03:41;;;;;;;7.97;5.17;;;;;;;14.09;93.46;98593.51;1870565;76;22164;-64
2021/05/30 00:06:16;;;;;;;6.50;4.53;;;;;;;14.05;93.73;98591.80;1870544;76;22554;-65
2021/05/30 00:08:54;;;;;;;8.30;4.30;;;;;;;14.02;93.85;98593.13;1854563;76;27934;-64
2021/05/30 00:11:34;;;;;;;8.98;4.50;;;;;;;14.05;93.97;98591.80;1870453;76;22593;-64
2021/05/30 00:14:22;;;;;;;8.33;4.62;;;;;;;13.98;94.01;98594.02;1760309;80;21101;-65
2021/05/30 00:16:56;;;;;;;9.50;4.30;;;;;;;13.97;94.22;98589.72;1870593;76;22113;-64
2021/05/30 00:19:31;;;;;;;6.78;5.00;;;;;;;13.91;94.51;98593.64;1870616;76;22100;-64
2021/05/30 00:22:06;;;;;;;7.47;4.70;;;;;;;13.86;94.75;98589.78;1854542;76;28452;-64
2021/05/30 00:24:41;;;;;;;7.10;4.80;;;;;;;13.90;94.81;98591.94;1870633;76;22149;-64
2021/05/30 00:27:16;;;;;;;12.55;4.87;;;;;;;13.90;94.86;98593.23;1870581;76;22128;-63
2021/05/30 00:29:53;;;;;;;8.58;4.80;;;;;;;13.90;94.97;98597.13;1870597;76;22575;-64
2021/05/30 00:32:25;;;;;;;6.62;4.42;;;;;;;13.89;95.05;98590.20;1870825;76;22113;-63
2021/05/30 00:35:00;;;;;;;8.43;5.12;;;;;;;13.88;95.17;98588.48;1870607;76;22141;-64
2021/05/30 00:37:35;;;;;;;6.97;5.55;;;;;;;13.86;95.21;98582.45;1870629;76;22600;-63
2021/05/30 00:40:10;;;;;;;7.65;5.03;;;;;;;13.81;95.39;98578.59;1889888;76;22183;-64
2021/05/30 00:42:44;;;;;;;6.50;4.75;;;;;;;13.76;95.54;98579.50;1870631;76;22599;-63
2021/05/30 00:45:31;;;;;;;7.10;4.35;;;;;;;13.66;95.67;98582.19;1760610;81;21144;-63
2021/05/30 00:48:07;;;;;;;7.12;4.62;;;;;;;13.68;95.89;98586.91;1870613;76;22113;-64
2021/05/30 00:50:43;;;;;;;7.78;4.92;;;;;;;13.64;96.01;98590.41;1870688;76;20216;-63
2021/05/30 00:53:18;;;;;;;8.73;5.20;;;;;;;13.62;96.15;98589.55;1854767;76;27915;-64
2021/05/30 00:55:54;;;;;;;10.38;6.30;;;;;;;13.67;96.21;98596.02;1870646;76;22153;-64
2021/05/30 00:58:29;;;;;;;7.12;4.55;;;;;;;13.67;96.22;98592.98;1870638;76;22164;-64
2021/05/30 01:01:05;;;;;;;10.93;5.75;;;;;;;13.67;96.23;98591.67;1870462;76;22175;-61
2021/05/30 01:03:39;;;;;;;7.95;5.28;;;;;;;13.67;96.26;98591.67;1870619;76;22551;-63
2021/05/30 01:06:14;;;;;;;8.73;5.25;;;;;;;13.66;96.26;98592.56;1889917;76;22112;-63
2021/05/30 01:08:50;;;;;;;8.38;5.33;;;;;;;13.64;96.33;98590.41;1854590;76;28337;-64
2021/05/30 01:11:32;;;;;;;8.23;5.80;;;;;;;13.70;96.40;98592.09;1889887;76;22153;-63
2021/05/30 01:14:18;;;;;;;11.20;5.90;;;;;;;13.66;96.32;98601.64;1861319;77;21134;-63
2021/05/30 01:16:54;;;;;;;7.00;5.20;;;;;;;13.67;96.38;98599.90;1854726;76;28355;-64
2021/05/30 01:19:32;;;;;;;6.75;5.47;;;;;;;13.73;96.44;98593.80;1870629;76;22144;-63
2021/05/30 01:22:08;;;;;;;9.53;5.58;;;;;;;13.75;96.43;98594.21;1870806;76;22117;-65
2021/05/30 01:24:41;;;;;;;11.53;5.78;;;;;;;13.75;96.43;98589.02;1889876;76;22116;-64
2021/05/30 01:27:17;;;;;;;8.20;5.20;;;;;;;13.75;96.43;98585.58;1870557;76;22132;-63
2021/05/30 01:29:52;;;;;;;10.43;5.80;;;;;;;13.72;96.51;98595.98;1870632;76;22193;-66
2021/05/30 01:32:28;;;;;;;8.30;5.45;;;;;;;13.68;96.60;98592.09;1854438;76;28386;-65
2021/05/30 01:35:06;;;;;;;7.50;5.47;;;;;;;13.73;96.64;98593.80;1870694;76;22121;-65
2021/05/30 01:37:42;;;;;;;10.43;6.08;;;;;;;13.73;96.66;98595.09;1870545;76;22169;-65
2021/05/30 01:40:28;;;;;;;9.98;5.62;;;;;;;13.65;96.72;98592.12;1760439;81;21552;-66
2021/05/30 01:43:04;;;;;;;8.28;5.97;;;;;;;13.72;96.82;98594.69;1889980;76;22104;-65
2021/05/30 01:45:39;;;;;;;8.75;6.20;;;;;;;13.70;96.86;98594.69;1889898;76;22585;-64
2021/05/30 01:48:14;;;;;;;8.53;5.85;;;;;;;13.67;96.92;98596.86;1873846;76;28357;-64
2021/05/30 01:50:51;;;;;;;9.13;5.90;;;;;;;13.71;96.97;98595.53;1870366;76;22161;-63
2021/05/30 01:53:34;;;;;;;9.38;6.08;;;;;;;13.75;97.01;98596.80;1889930;76;22136;-64
2021/05/30 01:58:50;;;;;;;9.53;6.12;;;;;;;13.76;97.02;98596.36;1870541;76;22571;-64
2021/05/30 02:01:27;;;;;;;9.40;5.83;;;;;;;13.72;97.13;98597.28;1889896;76;22165;-64
2021/05/30 02:04:13;;;;;;;19.42;7.20;;;;;;;13.63;97.24;98600.34;1861438;77;21580;-63
2021/05/30 02:06:49;;;;;;;17.45;6.00;;;;;;;13.67;97.34;98603.34;1870606;76;22164;-64
2021/05/30 02:09:25;;;;;;;9.45;5.67;;;;;;;13.69;97.45;98602.05;1854741;76;28305;-63
2021/05/30 02:12:11;;;;;;;9.08;5.03;;;;;;;13.70;97.47;98602.91;1827460;77;21153;-63
2021/05/30 02:14:46;;;;;;;8.03;5.45;;;;;;;13.74;97.42;98599.40;1889913;76;22118;-65
2021/05/30 02:17:23;;;;;;;8.65;5.20;;;;;;;13.73;97.49;98597.69;1854656;76;27996;-63
2021/05/30 02:19:58;;;;;;;8.48;5.30;;;;;;;13.77;97.53;98600.70;1889944;76;22116;-63
2021/05/30 02:22:32;;;;;;;8.80;5.08;;;;;;;13.77;97.50;98590.33;1870603;76;22144;-62
2021/05/30 02:25:18;;;;;;;8.70;4.70;;;;;;;13.70;97.58;98596.42;1760418;81;21137;-64
2021/05/30 02:27:55;;;;;;;7.60;4.90;;;;;;;13.71;97.65;98592.94;1854544;76;27930;-64
2021/05/30 02:30:30;;;;;;;10.30;5.47;;;;;;;13.77;97.72;98598.10;1889931;76;20097;-62
2021/05/30 02:33:16;;;;;;;9.38;5.80;;;;;;;13.68;97.60;98599.88;1861303;77;21126;-64
2021/05/30 02:35:50;;;;;;;8.68;5.55;;;;;;;13.70;97.72;98602.46;1870783;76;22551;-64
2021/05/30 02:38:26;;;;;;;8.05;5.50;;;;;;;13.67;97.79;98600.75;1854670;76;38242;-63
2021/05/30 02:41:12;;;;;;;10.30;5.92;;;;;;;13.66;97.81;98602.94;1760495;81;21547;-64
2021/05/30 02:43:48;;;;;;;9.18;5.70;;;;;;;13.73;97.73;98612.81;1870574;76;22145;-63
2021/05/30 02:46:22;;;;;;;8.60;5.70;;;;;;;13.71;97.74;98608.06;1870650;76;20454;-64
2021/05/30 02:48:57;;;;;;;8.13;5.80;;;;;;;13.70;97.67;98610.24;1870604;76;22179;-64
2021/05/30 02:51:32;;;;;;;10.05;5.92;;;;;;;13.75;97.68;98607.63;1889951;76;22143;-63
2021/05/30 02:54:07;;;;;;;8.88;6.30;;;;;;;13.77;97.64;98613.22;1870610;76;22117;-62
2021/05/30 02:56:42;;;;;;;8.23;6.22;;;;;;;13.77;97.51;98616.26;1870589;76;22539;-63
2021/05/30 02:59:18;;;;;;;10.53;7.42;;;;;;;13.75;97.38;98617.55;1870426;76;22570;-65
2021/05/30 03:01:52;;;;;;;9.18;7.28;;;;;;;13.74;97.46;98624.03;1870642;76;22141;-68
2021/05/30 03:04:27;;;;;;;9.45;7.05;;;;;;;13.76;97.44;98619.27;1870548;76;22275;-64
2021/05/30 03:07:03;;;;;;;9.60;6.08;;;;;;;13.76;97.42;98622.30;1890023;76;22135;-64
2021/05/30 03:09:50;;;;;;;9.18;6.37;;;;;;;13.70;97.25;98626.24;1791449;80;21142;-64
2021/05/30 03:12:26;;;;;;;11.15;6.25;;;;;;;13.78;97.17;98620.56;1854564;76;27916;-65
2021/05/30 03:15:04;;;;;;;10.45;7.20;;;;;;;13.84;96.90;98628.28;1889929;76;20093;-62
2021/05/30 03:17:52;;;;;;;12.53;7.28;;;;;;;13.81;96.78;98629.61;1791456;80;21247;-63
2021/05/30 03:20:27;;;;;;;8.48;6.22;;;;;;;13.81;96.76;98627.02;1854644;76;27895;-64
2021/05/30 03:23:03;;;;;;;7.53;5.95;;;;;;;13.86;96.70;98627.84;1889872;76;22595;-63
2021/05/30 03:25:38;;;;;;;8.33;5.80;;;;;;;13.88;96.55;98635.18;1889930;76;22171;-62
2021/05/30 03:28:32;;;;;;;7.08;5.30;;;;;;;13.97;97.03;98622.15;1868315;75;22220;-69
2021/05/30 03:31:07;;;;;;;8.30;4.58;;;;;;;14.19;96.66;98635.78;1870647;76;22121;-66
2021/05/30 03:33:41;;;;;;;7.00;5.10;;;;;;;14.30;96.13;98631.81;1870601;76;22121;-66
2021/05/30 03:36:36;;;;;;;8.40;5.55;;;;;;;14.42;95.55;98626.92;1881204;76;22192;-68
2021/05/30 03:39:10;;;;;;;9.88;5.70;;;;;;;14.61;95.21;98632.83;1870736;76;22149;-64
2021/05/30 03:41:52;;;;;;;16.00;5.92;;;;;;;14.67;93.98;98636.65;1889873;76;22567;-63
2021/05/30 03:44:22;;;;;;;6.70;5.45;;;;;;;14.68;93.66;98640.54;1889861;76;22562;-63
2021/05/30 03:47:11;;;;;;;5.40;4.30;;;;;;;14.72;93.65;98642.66;1861446;77;21166;-63
2021/05/30 03:49:43;;;;;;;8.78;4.87;;;;;;;14.80;92.99;98642.13;1870776;76;22125;-61
2021/05/30 03:52:39;;;;;;;6.03;4.35;;;;;;;14.91;92.51;98626.44;1871100;75;22184;-61
2021/05/30 03:55:20;;;;;;;7.58;4.92;;;;;;;14.93;91.57;98635.05;1870545;76;22129;-62
2021/05/30 03:57:57;;;;;;;5.90;4.65;;;;;;;14.90;91.16;98641.14;1870512;76;22230;-61
2021/05/30 04:00:43;;;;;;;7.67;4.80;;;;;;;14.92;90.82;98648.93;1827558;78;21249;-62
2021/05/30 04:03:18;;;;;;;6.12;4.40;;;;;;;14.98;90.47;98648.84;1889873;76;22163;-63
2021/05/30 04:05:53;;;;;;;7.00;4.72;;;;;;;14.98;90.63;98652.33;1870749;76;22192;-61
2021/05/30 04:08:27;;;;;;;6.47;4.20;;;;;;;15.05;89.93;98652.24;1870615;76;22196;-59
2021/05/30 16:52:47;;;;;;;8.88;4.65;;;;;;;15.01;87.06;98897.42;1835003;77;22157;-66
2021/05/30 16:55:23;;;;;;;5.72;3.80;;;;;;;14.83;88.04;98901.02;1854509;76;27931;-66
2021/05/30 16:58:03;;;;;;;10.78;4.70;;;;;;;14.75;89.70;98911.47;1869705;76;22137;-66
2021/05/30 17:00:40;;;;;;;8.10;4.42;;;;;;;14.62;90.73;98913.28;1854548;76;38242;-65
2021/05/30 17:03:15;;;;;;;9.73;5.30;;;;;;;14.73;92.39;98908.91;1870496;76;22160;-67
2021/05/30 17:05:51;;;;;;;12.28;4.12;;;;;;;14.75;92.74;98905.83;1870460;76;22168;-66
2021/05/30 17:08:26;;;;;;;6.37;3.72;;;;;;;14.62;92.38;98905.94;1854495;76;27928;-63
2021/05/30 17:11:07;;;;;;;5.53;4.08;;;;;;;14.57;92.38;98908.55;1869696;76;22164;-65
2021/05/30 17:13:41;;;;;;;5.78;4.37;;;;;;;14.46;92.49;98904.70;1870596;76;22587;-65
2021/05/30 17:16:16;;;;;;;6.53;3.83;;;;;;;14.44;92.83;98902.98;1870557;76;22551;-64
2021/05/30 17:18:50;;;;;;;10.30;4.45;;;;;;;14.41;92.90;98906.46;1870051;76;22219;-64
2021/05/30 17:21:25;;;;;;;6.00;4.08;;;;;;;14.28;93.07;98908.70;1868098;76;22562;-65
2021/05/30 17:24:12;;;;;;;7.37;4.20;;;;;;;14.16;93.36;98917.83;1832084;77;21138;-66
2021/05/30 17:26:47;;;;;;;7.87;5.12;;;;;;;14.23;94.05;98911.75;1889868;76;22547;-63
2021/05/30 17:29:22;;;;;;;9.23;5.22;;;;;;;14.22;94.35;98909.59;1854858;76;22145;-65
2021/05/30 17:31:56;;;;;;;9.70;5.10;;;;;;;14.30;95.07;98905.66;1854556;76;22266;-62
2021/05/30 17:34:32;;;;;;;8.15;3.87;;;;;;;14.40;95.50;98909.94;1873356;76;28331;-64
2021/05/30 17:37:07;;;;;;;8.43;3.20;;;;;;;14.51;95.98;98904.23;1870369;76;22188;-65
2021/05/30 17:39:43;;;;;;;5.87;3.42;;;;;;;14.63;94.68;98911.55;1858538;76;22205;-64
2021/05/30 17:42:18;;;;;;;7.15;3.87;;;;;;;14.58;94.12;98917.20;1857052;76;22136;-62
2021/05/30 17:44:53;;;;;;;6.45;3.40;;;;;;;14.45;93.71;98916.38;1854413;76;22157;-64
2021/05/30 17:47:28;;;;;;;9.38;4.60;;;;;;;14.36;94.01;98921.20;1838804;76;27949;-64
2021/05/30 17:50:06;;;;;;;7.08;4.50;;;;;;;14.34;94.46;98925.53;1869086;76;22590;-65
2021/05/30 17:52:39;;;;;;;6.85;4.00;;;;;;;14.30;94.55;98930.33;1870311;76;22141;-65
2021/05/30 17:55:15;;;;;;;6.53;3.45;;;;;;;14.17;95.54;98931.22;1842348;76;22210;-63
2021/05/30 17:57:49;;;;;;;5.87;4.17;;;;;;;13.95;96.15;98927.42;1869503;76;22244;-65
2021/05/30 18:00:25;;;;;;;7.87;4.03;;;;;;;13.80;96.12;98925.73;1888308;76;22175;-66
2021/05/30 18:03:11;;;;;;;9.43;3.85;;;;;;;13.64;96.60;98923.62;1860771;77;21326;-64
2021/05/30 18:05:48;;;;;;;6.50;3.27;;;;;;;13.47;95.38;98929.26;1854237;76;27908;-65
2021/05/30 18:08:23;;;;;;;6.20;3.08;;;;;;;13.36;95.06;98928.42;1870224;76;22168;-65
2021/05/30 18:11:00;;;;;;;8.03;3.70;;;;;;;13.24;95.41;98926.66;1870153;76;22260;-64
2021/05/30 18:13:35;;;;;;;5.50;2.98;;;;;;;13.15;95.83;98926.23;1854571;76;27925;-65
2021/05/30 18:16:09;;;;;;;6.25;3.20;;;;;;;13.13;95.64;98929.25;1870371;76;22121;-64
2021/05/30 18:18:44;;;;;;;6.22;3.27;;;;;;;13.08;95.91;98930.09;1870294;76;22195;-65
2021/05/30 18:21:19;;;;;;;9.60;3.47;;;;;;;13.02;96.13;98936.14;1863928;76;22179;-65
2021/05/30 18:23:54;;;;;;;6.78;4.20;;;;;;;12.97;96.19;98930.95;1870290;76;22153;-67
2021/05/30 18:26:29;;;;;;;8.43;3.62;;;;;;;12.94;96.49;98931.39;1869918;76;22176;-66
2021/05/30 18:29:04;;;;;;;7.53;4.08;;;;;;;12.90;96.54;98940.02;1870219;76;22144;-67
2021/05/30 18:31:39;;;;;;;7.53;4.25;;;;;;;12.92;96.70;98951.24;1889527;76;22203;-67
2021/05/30 18:34:20;;;;;;;10.75;3.92;;;;;;;12.96;96.54;98957.73;1869445;76;22616;-67
2021/05/30 18:36:55;;;;;;;6.37;3.25;;;;;;;12.99;95.17;98955.58;1889601;76;22147;-67
2021/05/30 18:39:30;;;;;;;7.70;3.65;;;;;;;13.02;94.32;98956.42;1889417;76;20152;-67
2021/05/30 18:42:12;;;;;;;6.72;3.50;;;;;;;13.05;93.76;98959.45;1889406;76;22206;-67
2021/05/30 18:44:47;;;;;;;10.98;3.70;;;;;;;13.07;93.50;98959.03;1870297;76;22184;-67
2021/05/30 18:47:23;;;;;;;7.95;3.42;;;;;;;13.09;92.94;98965.52;1854308;76;38317;-67
2021/05/30 18:49:58;;;;;;;8.20;3.42;;;;;;;13.14;92.70;98965.09;1854108;76;27959;-67
2021/05/30 18:52:46;;;;;;;6.50;3.08;;;;;;;13.17;92.81;98976.31;1759948;81;21173;-66
2021/05/30 18:55:27;;;;;;;6.83;3.60;;;;;;;13.24;92.40;98972.86;1869337;76;22224;-65
2021/05/30 18:58:05;;;;;;;8.55;3.95;;;;;;;13.30;92.74;98976.36;1889658;76;20156;-67
2021/05/30 19:00:39;;;;;;;7.95;3.98;;;;;;;13.29;92.94;98981.98;1889334;76;22148;-67
2021/05/30 19:03:14;;;;;;;8.63;3.40;;;;;;;13.28;92.94;98976.78;1870345;76;22148;-67
2021/05/30 19:05:48;;;;;;;6.37;3.58;;;;;;;13.27;92.98;98986.73;1870404;76;22168;-67
2021/05/30 19:08:24;;;;;;;9.90;3.92;;;;;;;13.25;92.92;98982.80;1854271;76;27929;-66
2021/05/30 19:11:07;;;;;;;7.87;4.30;;;;;;;13.27;92.70;98982.40;1869429;76;22148;-67
2021/05/30 19:13:43;;;;;;;7.50;4.12;;;;;;;13.25;92.64;98977.61;1889598;76;22159;-66
2021/05/30 19:16:20;;;;;;;7.15;4.05;;;;;;;13.22;92.70;98978.91;1854484;76;28597;-67
2021/05/30 19:18:59;;;;;;;7.40;4.03;;;;;;;13.26;92.78;98983.25;1869618;76;22571;-66
2021/05/30 19:21:35;;;;;;;6.53;4.25;;;;;;;13.25;92.73;98981.09;1870116;76;22168;-66
2021/05/30 19:24:10;;;;;;;10.10;4.20;;;;;;;13.25;92.80;98984.98;1889740;76;22547;-65
2021/05/30 19:26:46;;;;;;;9.55;5.08;;;;;;;13.25;93.04;98984.09;1889525;76;20101;-66
2021/05/30 19:29:20;;;;;;;7.53;4.00;;;;;;;13.25;93.21;98989.27;1870171;76;22559;-65
2021/05/30 19:31:55;;;;;;;7.35;4.10;;;;;;;13.24;93.25;98985.82;1889507;76;22171;-66
2021/05/30 19:34:41;;;;;;;7.60;4.25;;;;;;;13.17;92.65;98987.11;1860636;77;21268;-66
2021/05/30 19:37:16;;;;;;;5.67;3.70;;;;;;;13.20;92.30;98994.48;1870307;76;22148;-67
2021/05/30 19:39:56;;;;;;;8.13;3.72;;;;;;;13.16;91.87;98987.99;1869254;76;22168;-69
2021/05/30 19:42:34;;;;;;;6.40;3.58;;;;;;;13.13;91.64;98988.84;1889173;76;22234;-67
2021/05/30 19:45:12;;;;;;;11.10;4.08;;;;;;;13.07;91.24;98991.41;1868997;76;22153;-67
2021/05/30 19:47:48;;;;;;;8.55;3.67;;;;;;;13.02;91.01;98989.25;1869700;76;22191;-65
2021/05/30 19:50:23;;;;;;;8.28;3.33;;;;;;;12.98;90.95;98991.42;1870144;76;22200;-66
2021/05/30 19:52:58;;;;;;;8.10;3.25;;;;;;;12.94;90.78;98997.01;1873332;76;28365;-65
2021/05/30 19:55:34;;;;;;;5.25;3.02;;;;;;;12.95;90.34;99001.34;1870322;76;22566;-66
2021/05/30 19:58:14;;;;;;;5.78;3.25;;;;;;;12.90;90.21;98997.88;1869494;76;22116;-66
2021/05/30 20:00:55;;;;;;;12.07;3.80;;;;;;;12.87;89.72;99002.17;1889608;76;22189;-66
2021/05/30 20:03:49;;;;;;;7.00;3.27;;;;;;;12.79;89.83;98999.12;1877089;75;22763;-64
2021/05/30 20:06:26;;;;;;;5.28;2.83;;;;;;;12.74;89.77;98998.25;1889582;76;22263;-67
2021/05/30 20:09:11;;;;;;;10.60;3.30;;;;;;;12.63;89.03;98997.37;1860630;77;21172;-67
2021/05/30 20:11:46;;;;;;;6.47;3.27;;;;;;;12.66;89.25;99002.55;1870066;76;23235;-67
2021/05/30 20:14:21;;;;;;;10.28;3.30;;;;;;;12.64;89.22;98996.94;1870300;76;22176;-66
2021/05/30 20:16:56;;;;;;;12.35;3.60;;;;;;;12.60;89.22;99002.55;1870363;76;22128;-67
2021/05/30 20:19:31;;;;;;;8.25;2.80;;;;;;;12.58;89.38;99005.55;1862341;76;22144;-65
2021/05/30 20:22:06;;;;;;;6.78;3.15;;;;;;;12.54;88.33;99003.39;1870669;76;22137;-66
2021/05/30 20:24:53;;;;;;;7.90;3.45;;;;;;;12.51;88.20;99008.97;1827704;78;21521;-64
2021/05/30 20:27:34;;;;;;;6.22;3.00;;;;;;;12.54;87.97;99007.28;1870627;76;20212;-64
2021/05/30 20:30:11;;;;;;;9.40;2.72;;;;;;;12.52;87.30;99010.72;1869924;76;22181;-66
2021/05/30 20:32:45;;;;;;;3.80;2.50;;;;;;;12.51;87.07;99015.44;1869840;76;22216;-65
2021/05/30 20:35:19;;;;;;;7.58;3.00;;;;;;;12.49;86.65;99022.33;1869725;76;22260;-64
2021/05/30 20:38:07;;;;;;;9.35;3.42;;;;;;;12.43;86.45;99021.02;1760496;81;21280;-65
2021/05/30 20:40:49;;;;;;;5.72;3.10;;;;;;;12.47;86.62;99016.31;1889788;76;22172;-65
2021/05/30 20:43:25;;;;;;;6.20;2.83;;;;;;;12.44;86.60;99026.63;1889842;76;22151;-65
2021/05/30 20:46:07;;;;;;;6.28;3.42;;;;;;;12.43;86.44;99023.17;1889800;76;22211;-64
2021/05/30 20:48:41;;;;;;;7.92;2.70;;;;;;;12.42;86.78;99025.77;1889968;76;22112;-64
2021/05/30 20:51:18;;;;;;;5.87;2.60;;;;;;;12.42;86.78;99034.83;1870580;76;22562;-65
2021/05/30 20:54:04;;;;;;;7.28;3.60;;;;;;;12.36;86.84;99026.19;1827619;78;21278;-64
2021/05/30 20:56:39;;;;;;;5.87;2.80;;;;;;;12.44;87.09;99031.80;1854747;76;38346;-63
2021/05/30 20:59:13;;;;;;;5.67;2.65;;;;;;;12.49;87.10;99033.58;1889888;76;22128;-63
2021/05/30 21:01:48;;;;;;;6.20;2.85;;;;;;;12.52;87.01;99040.48;1870622;76;22152;-64
2021/05/30 21:04:34;;;;;;;7.05;3.35;;;;;;;12.49;87.00;99041.74;1827596;77;21632;-64
2021/05/30 21:07:09;;;;;;;10.10;3.45;;;;;;;12.52;86.62;99044.38;1870771;76;22149;-64
2021/05/30 21:09:43;;;;;;;8.78;3.15;;;;;;;12.51;86.89;99043.48;1870608;76;22151;-62
2021/05/30 21:12:18;;;;;;;7.95;3.10;;;;;;;12.50;86.69;99039.61;1870587;76;22101;-64
2021/05/30 21:14:53;;;;;;;6.72;3.17;;;;;;;12.48;87.27;99039.59;1870621;76;22136;-63
2021/05/30 21:17:39;;;;;;;8.58;3.70;;;;;;;12.43;87.46;99038.70;1827676;77;21674;-63
2021/05/30 21:20:15;;;;;;;11.83;3.33;;;;;;;12.46;87.57;99032.67;1873925;76;27986;-62
2021/05/30 21:22:50;;;;;;;8.20;3.20;;;;;;;12.49;87.79;99034.87;1870745;76;22105;-62
2021/05/30 21:25:24;;;;;;;7.90;3.70;;;;;;;12.47;88.17;99033.13;1870617;76;22569;-61
2021/05/30 21:28:10;;;;;;;7.28;3.25;;;;;;;12.38;88.15;99037.81;1760575;81;21705;-63
2021/05/30 21:30:45;;;;;;;7.97;3.12;;;;;;;12.40;88.33;99039.98;1870655;76;22113;-65
2021/05/30 21:33:26;;;;;;;9.00;3.08;;;;;;;12.40;88.66;99032.66;1869783;76;22124;-64
2021/05/30 21:36:01;;;;;;;6.75;2.70;;;;;;;12.40;88.94;99040.42;1890092;76;22139;-64
2021/05/30 21:38:36;;;;;;;6.55;3.10;;;;;;;12.36;88.93;99035.24;1870638;76;22121;-61
2021/05/30 21:41:11;;;;;;;9.78;3.05;;;;;;;12.34;89.10;99030.48;1889925;76;22606;-60
2021/05/30 21:43:46;;;;;;;10.13;4.97;;;;;;;12.33;89.01;99029.16;1889917;76;22148;-63
2021/05/30 21:46:21;;;;;;;9.83;3.52;;;;;;;12.30;89.40;99026.13;1873811;76;28386;-65
2021/05/30 21:48:57;;;;;;;8.18;3.05;;;;;;;12.31;89.26;99025.30;1870446;76;22166;-64
2021/05/30 21:51:32;;;;;;;6.42;3.60;;;;;;;12.27;89.37;99020.95;1870552;76;22575;-65
2021/05/30 21:54:07;;;;;;;5.22;3.50;;;;;;;12.25;89.74;99020.51;1890011;76;22619;-64
2021/05/30 21:56:41;;;;;;;10.48;3.60;;;;;;;12.23;89.89;99025.66;1870625;76;22164;-65
2021/05/30 21:59:17;;;;;;;9.05;3.42;;;;;;;12.22;90.14;99023.95;1873840;76;28332;-64
2021/05/30 22:01:52;;;;;;;12.58;3.52;;;;;;;12.25;90.04;99020.07;1870612;76;22121;-63
2021/05/30 22:04:27;;;;;;;9.98;3.92;;;;;;;12.25;90.32;99021.80;1889899;76;22140;-64
2021/05/30 22:07:16;;;;;;;6.53;2.98;;;;;;;12.19;90.53;99034.28;1861002;77;21110;-65
2021/05/30 22:09:56;;;;;;;12.93;3.77;;;;;;;12.23;90.63;99026.09;1890026;76;22181;-63
2021/05/30 22:12:31;;;;;;;6.00;2.67;;;;;;;12.22;90.82;99023.95;1889894;76;22143;-63
2021/05/30 22:15:18;;;;;;;10.58;2.75;;;;;;;12.16;90.40;99020.01;1889889;76;22138;-63
2021/05/30 22:20:23;;;;;;;4.72;2.52;;;;;;;12.05;90.02;99029.45;1870537;76;22177;-65
2021/05/30 22:22:59;;;;;;;8.58;3.25;;;;;;;12.01;89.86;99030.27;1870600;76;22574;-65
2021/05/30 22:25:34;;;;;;;6.55;2.50;;;;;;;11.97;89.92;99033.71;1854732;76;27926;-64
2021/05/30 22:28:08;;;;;;;7.95;2.45;;;;;;;11.95;89.58;99037.14;1870633;76;22558;-66
2021/05/30 22:30:46;;;;;;;5.55;2.17;;;;;;;11.93;89.55;99041.86;1854666;76;27907;-63
2021/05/30 22:33:22;;;;;;;4.45;2.27;;;;;;;11.95;89.21;99037.14;1870371;76;22579;-66
2021/05/30 22:35:58;;;;;;;5.47;2.20;;;;;;;11.94;88.70;99038.44;1854682;76;27884;-65
2021/05/30 22:38:38;;;;;;;4.05;1.77;;;;;;;11.95;88.85;99042.73;1889879;76;22212;-66
2021/05/30 22:41:13;;;;;;;4.15;2.00;;;;;;;11.91;88.88;99041.87;1870579;76;22247;-65
2021/05/30 22:43:48;;;;;;;6.83;2.42;;;;;;;11.88;88.87;99036.69;1873841;76;27919;-64
2021/05/30 22:46:23;;;;;;;10.20;2.10;;;;;;;11.89;88.87;99033.23;1870618;76;22193;-66
2021/05/30 22:48:59;;;;;;;4.97;2.10;;;;;;;11.85;88.69;99035.31;1854577;76;27868;-66
2021/05/30 22:51:34;;;;;;;8.78;2.25;;;;;;;11.86;88.91;99033.22;1870620;76;22105;-66
2021/05/30 22:54:09;;;;;;;9.28;2.60;;;;;;;11.83;88.80;99030.98;1889902;76;22144;-64
2021/05/30 22:56:51;;;;;;;7.58;2.42;;;;;;;11.81;88.81;99028.41;1889969;76;22191;-65
2021/05/30 22:59:31;;;;;;;5.72;2.27;;;;;;;11.78;88.78;99025.81;1889860;76;22104;-65
2021/05/30 23:02:17;;;;;;;10.08;2.42;;;;;;;11.70;88.77;99027.05;1861390;77;21149;-64
2021/05/30 23:04:52;;;;;;;8.05;2.60;;;;;;;11.73;88.81;99031.38;1870654;76;22152;-64
2021/05/30 23:07:27;;;;;;;6.90;2.98;;;;;;;11.74;89.12;99027.92;1870639;76;22117;-64
2021/05/30 23:10:06;;;;;;;6.37;3.08;;;;;;;11.72;88.92;99025.74;1870620;76;22193;-64
2021/05/30 23:12:56;;;;;;;4.87;2.42;;;;;;;11.66;88.87;99029.16;1827642;78;21162;-62
2021/05/30 23:15:32;;;;;;;10.05;2.40;;;;;;;11.67;88.59;99020.97;1870463;76;22582;-63
2021/05/30 23:18:07;;;;;;;7.30;2.42;;;;;;;11.65;88.56;99022.67;1870621;76;22144;-61
2021/05/30 23:20:43;;;;;;;20.00;3.17;;;;;;;11.61;88.69;99031.27;1870539;76;22542;-63
2021/05/30 23:23:18;;;;;;;6.45;2.65;;;;;;;11.50;89.07;99026.88;1873852;76;28015;-64
2021/05/30 23:25:53;;;;;;;6.35;2.40;;;;;;;11.54;89.15;99022.59;1854578;76;28331;-67
2021/05/30 23:28:29;;;;;;;7.78;2.27;;;;;;;11.59;88.69;99023.49;1870777;76;22160;-65
2021/05/30 23:31:15;;;;;;;8.98;2.40;;;;;;;11.55;88.87;99020.47;1827778;78;21268;-63
2021/05/30 23:33:49;;;;;;;8.80;3.25;;;;;;;11.57;88.86;99016.58;1870542;76;22542;-62
2021/05/30 23:36:24;;;;;;;5.15;2.42;;;;;;;11.54;88.67;99016.13;1870649;76;22179;-64
2021/05/30 23:38:59;;;;;;;5.22;2.10;;;;;;;11.51;88.52;99012.23;1870691;76;22160;-64
2021/05/30 23:41:35;;;;;;;7.87;2.83;;;;;;;11.44;88.35;99015.19;1870676;76;22539;-64
2021/05/30 23:44:12;;;;;;;6.55;2.85;;;;;;;11.43;88.47;99014.76;1870656;76;22578;-63
2021/05/30 23:46:48;;;;;;;6.10;2.55;;;;;;;11.44;88.44;99011.31;1870377;76;22175;-64
2021/05/30 23:49:22;;;;;;;9.23;2.47;;;;;;;11.45;88.50;99010.48;1889931;76;22233;-62
2021/05/30 23:51:59;;;;;;;4.58;2.27;;;;;;;11.45;88.70;99011.77;1870618;76;22141;-63
2021/05/30 23:54:35;;;;;;;7.62;2.67;;;;;;;11.44;88.50;99012.59;1870442;76;22168;-63
2021/05/30 23:57:10;;;;;;;8.55;2.95;;;;;;;11.44;88.75;99008.73;1889896;76;22104;-63
2021/05/30 23:59:50;;;;;;;8.03;2.98;;;;;;;11.43;88.99;99012.17;1869785;76;22140;-63
